Terminal Aerodrome Forecast
Issued by NWS

Home | Current Version | Previous Version | Text Only | Print | Product List | Glossary On
Versions: 1 2 3 4 5 6 7 8 9 10 11 12 13 14 15 16
000
FTUS43 KICT 220237 AAA
TAFCNU
TAF AMD
KCNU 220237Z 2203/2224 35008KT 6SM -SHRA OVC045
     FM220600 02009KT 6SM -SHRA OVC025
     FM221100 02009KT 5SM -SHRA OVC015
     FM221300 02010KT 4SM -SHRA OVC008
     FM221500 02011KT P6SM VCSH OVC008
     FM222000 03010KT P6SM OVC015=

USA.gov is the U.S. government's official web portal to all federal, state and local government web resources and services.